createdAt,value
2022-10-16T00:00:12.109Z,0.73
2022-10-16T00:02:44.887Z,2.72
2022-10-16T00:05:14.172Z,1.20
2022-10-16T00:07:45.887Z,5.50
2022-10-16T00:10:27.344Z,2.70
2022-10-16T00:12:58.897Z,0.60
2022-10-16T00:17:58.087Z,1.05
2022-10-16T00:20:44.744Z,0.80
2022-10-16T00:23:14.158Z,3.13
2022-10-16T00:25:42.520Z,2.13
2022-10-16T00:28:17.363Z,1.67
2022-10-16T00:30:46.885Z,2.00
2022-10-16T00:33:24.753Z,1.42
2022-10-16T00:35:56.616Z,1.23
2022-10-16T00:38:26.504Z,1.35
2022-10-16T00:40:55.938Z,1.73
2022-10-16T00:43:52.022Z,1.20
2022-10-16T00:46:42.492Z,2.08
2022-10-16T00:49:19.191Z,1.08
2022-10-16T00:52:10.044Z,1.42
2022-10-16T00:54:40.384Z,2.47
2022-10-16T00:57:12.766Z,1.63
2022-10-16T01:21:15.792Z,2.58
2022-10-16T01:24:20.060Z,1.38
2022-10-16T01:27:26.397Z,0.73
2022-10-16T01:30:45.203Z,1.10
2022-10-16T01:33:31.809Z,1.48
2022-10-16T01:39:13.935Z,1.52
2022-10-16T01:41:50.931Z,2.17
2022-10-16T01:44:26.893Z,3.97
2022-10-16T01:46:58.761Z,1.17
2022-10-16T01:49:33.476Z,1.63
2022-10-16T01:52:10.561Z,0.70
2022-10-16T01:54:46.899Z,0.90
2022-10-16T01:57:19.468Z,0.70
2022-10-16T02:00:02.507Z,1.70
2022-10-16T02:02:48.623Z,2.35
2022-10-16T02:05:32.444Z,0.98
2022-10-16T02:08:03.201Z,2.22
2022-10-16T02:10:37.439Z,1.85
2022-10-16T02:13:18.917Z,1.65
2022-10-16T02:15:49.402Z,3.00
2022-10-16T02:18:20.601Z,1.05
2022-10-16T02:21:29.870Z,1.05
2022-10-16T02:24:36.183Z,0.95
2022-10-16T02:27:36.354Z,3.83
2022-10-16T02:30:21.728Z,0.77
2022-10-16T02:32:54.108Z,1.27
2022-10-16T02:35:25.060Z,1.48
2022-10-16T02:38:15.119Z,1.03
2022-10-16T02:40:45.013Z,2.33
2022-10-16T02:43:15.708Z,1.65
2022-10-16T02:45:45.040Z,1.88
2022-10-16T02:48:15.648Z,1.15
2022-10-16T02:50:43.700Z,1.20
2022-10-16T02:53:13.340Z,1.08
2022-10-16T02:55:42.686Z,2.92
2022-10-16T02:58:10.467Z,0.70
2022-10-16T03:00:38.879Z,1.40
2022-10-16T03:03:07.095Z,1.10
2022-10-16T03:05:35.656Z,3.75
2022-10-16T03:08:03.479Z,2.63
2022-10-16T03:10:31.504Z,0.90
2022-10-16T03:13:00.081Z,2.50
2022-10-16T03:15:29.200Z,1.67
2022-10-16T03:17:59.690Z,2.45
2022-10-16T03:20:27.731Z,1.00
2022-10-16T03:22:55.922Z,1.50
2022-10-16T03:25:24.591Z,3.15
2022-10-16T03:27:53.250Z,1.02
2022-10-16T03:30:23.124Z,1.08
2022-10-16T03:32:54.920Z,4.05
2022-10-16T03:35:24.675Z,0.90
2022-10-16T03:37:53.346Z,1.13
2022-10-16T03:40:21.805Z,2.35
2022-10-16T03:42:49.565Z,2.00
2022-10-16T03:45:17.872Z,4.13
2022-10-16T03:47:45.727Z,0.80
2022-10-16T03:50:13.466Z,0.85
2022-10-16T03:52:41.416Z,1.23
2022-10-16T03:55:09.533Z,1.00
2022-10-16T03:57:37.345Z,1.00
2022-10-16T04:00:05.833Z,1.52
2022-10-16T04:02:43.240Z,2.25
2022-10-16T04:05:15.352Z,0.90
2022-10-16T04:07:43.077Z,1.25
2022-10-16T04:10:11.515Z,1.67
2022-10-16T04:12:40.588Z,0.80
2022-10-16T04:15:09.436Z,3.63
2022-10-16T04:17:38.846Z,0.70
2022-10-16T04:20:09.107Z,0.93
2022-10-16T04:22:40.251Z,1.23
2022-10-16T04:25:09.005Z,1.20
2022-10-16T04:27:36.764Z,1.05
2022-10-16T04:30:07.691Z,0.90
2022-10-16T04:32:35.437Z,1.88
2022-10-16T04:35:03.917Z,0.93
2022-10-16T04:37:33.388Z,5.97
2022-10-16T04:40:01.361Z,2.45
2022-10-16T04:42:29.390Z,1.60
2022-10-16T04:44:57.285Z,0.60
2022-10-16T04:47:25.394Z,1.05
2022-10-16T04:49:53.661Z,6.35
2022-10-16T04:52:22.924Z,1.98
2022-10-16T04:54:51.629Z,1.27
2022-10-16T04:57:19.433Z,1.00
2022-10-16T04:59:47.237Z,1.13
2022-10-16T05:02:15.235Z,1.30
2022-10-16T05:04:43.915Z,2.65
2022-10-16T05:07:11.798Z,0.90
2022-10-16T05:09:39.779Z,0.88
2022-10-16T05:12:07.628Z,2.28
2022-10-16T05:14:35.867Z,2.20
2022-10-16T05:17:03.803Z,2.13
2022-10-16T05:19:31.595Z,2.17
2022-10-16T05:22:00.752Z,3.00
2022-10-16T05:24:28.782Z,1.77
2022-10-16T05:26:58.069Z,2.20
2022-10-16T05:29:26.696Z,1.65
2022-10-16T05:31:54.837Z,1.45
2022-10-16T05:34:22.911Z,1.77
2022-10-16T05:36:53.517Z,3.25
2022-10-16T05:39:21.458Z,0.73
2022-10-16T05:41:51.642Z,4.28
2022-10-16T05:44:19.468Z,1.33
2022-10-16T05:46:48.332Z,1.73
2022-10-16T05:49:18.367Z,2.83
2022-10-16T05:51:46.338Z,0.80
2022-10-16T05:54:14.515Z,2.17
2022-10-16T05:56:42.678Z,0.80
2022-10-16T05:59:10.605Z,0.80
2022-10-16T06:01:38.367Z,1.00
2022-10-16T06:04:06.777Z,1.38
2022-10-16T06:06:38.522Z,3.17
2022-10-16T06:09:06.745Z,1.77
2022-10-16T06:11:35.209Z,2.75
2022-10-16T06:14:07.688Z,1.23
2022-10-16T06:16:40.599Z,3.95
2022-10-16T06:19:09.267Z,1.60
2022-10-16T06:21:37.044Z,2.70
2022-10-16T06:24:10.070Z,2.20
2022-10-16T06:26:40.834Z,2.43
2022-10-16T06:29:10.266Z,3.10
2022-10-16T06:31:40.526Z,3.97
2022-10-16T06:34:12.531Z,3.03
2022-10-16T06:36:42.286Z,1.40
2022-10-16T06:39:10.236Z,5.55
2022-10-16T06:41:40.635Z,3.60
2022-10-16T06:44:18.812Z,3.50
2022-10-16T06:46:46.792Z,2.15
2022-10-16T06:49:22.754Z,1.80
2022-10-16T06:51:50.841Z,1.38
2022-10-16T06:54:19.056Z,1.33
2022-10-16T06:56:49.104Z,3.13
2022-10-16T06:59:16.894Z,3.65
2022-10-16T07:01:45.132Z,6.45
2022-10-16T07:04:18.874Z,4.35
2022-10-16T07:06:48.619Z,2.72
2022-10-16T07:09:16.774Z,1.33
2022-10-16T07:11:44.995Z,2.20
2022-10-16T07:14:21.560Z,3.17
2022-10-16T07:16:51.618Z,5.43
2022-10-16T07:19:20.164Z,3.63
2022-10-16T07:21:48.694Z,4.25
2022-10-16T07:24:18.093Z,2.35
2022-10-16T07:26:47.205Z,1.10
2022-10-16T07:29:19.659Z,1.40
2022-10-16T07:31:49.757Z,2.75
2022-10-16T07:34:19.741Z,4.82
2022-10-16T07:36:50.693Z,1.25
2022-10-16T07:39:19.359Z,3.33
2022-10-16T07:41:48.621Z,2.45
2022-10-16T07:44:19.350Z,4.63
2022-10-16T07:46:49.686Z,1.70
2022-10-16T07:49:19.429Z,3.42
2022-10-16T07:51:47.251Z,7.88
2022-10-16T07:54:15.027Z,3.30
2022-10-16T07:56:43.983Z,4.65
2022-10-16T07:59:13.106Z,1.15
2022-10-16T08:01:44.395Z,2.15
2022-10-16T08:04:14.976Z,2.88
2022-10-16T08:06:43.051Z,1.88
2022-10-16T08:09:11.138Z,1.17
2022-10-16T08:11:41.379Z,1.75
2022-10-16T08:14:09.355Z,0.90
2022-10-16T08:16:39.535Z,1.08
2022-10-16T08:19:09.186Z,3.72
2022-10-16T08:21:37.008Z,1.25
2022-10-16T08:24:04.924Z,2.15
2022-10-16T08:26:34.063Z,1.48
2022-10-16T08:29:03.299Z,1.75
2022-10-16T08:31:33.788Z,1.33
2022-10-16T08:34:01.841Z,4.13
2022-10-16T08:36:49.961Z,2.15
2022-10-16T08:39:22.301Z,2.10
2022-10-16T08:42:34.220Z,2.80
2022-10-16T08:45:49.240Z,1.27
2022-10-16T08:48:28.776Z,1.50
2022-10-16T08:50:59.251Z,1.58
2022-10-16T08:53:37.227Z,4.97
2022-10-16T08:56:07.000Z,1.63
2022-10-16T08:58:38.374Z,1.73
2022-10-16T09:01:26.688Z,1.95
2022-10-16T09:04:21.472Z,1.30
2022-10-16T09:07:21.384Z,3.28
2022-10-16T09:10:08.177Z,1.67
2022-10-16T09:12:55.986Z,3.78
2022-10-16T09:15:26.754Z,3.42
2022-10-16T09:18:00.903Z,1.50
2022-10-16T09:21:19.459Z,0.70
2022-10-16T09:23:51.329Z,1.75
2022-10-16T09:26:27.151Z,1.65
2022-10-16T09:28:55.636Z,1.67
2022-10-16T09:31:28.141Z,0.80
2022-10-16T09:34:10.481Z,2.30
2022-10-16T09:36:45.973Z,1.20
2022-10-16T09:39:15.413Z,1.75
2022-10-16T09:41:46.760Z,3.15
2022-10-16T09:44:25.169Z,1.50
2022-10-16T09:47:05.958Z,0.98
2022-10-16T09:49:43.703Z,1.75
2022-10-16T09:52:16.507Z,1.27
2022-10-16T09:54:54.272Z,1.10
2022-10-16T09:57:46.283Z,4.63
2022-10-16T10:00:25.014Z,3.58
2022-10-16T10:02:58.696Z,0.90
2022-10-16T10:05:42.217Z,2.42
2022-10-16T10:08:23.110Z,3.35
2022-10-16T10:10:55.768Z,0.85
2022-10-16T10:13:28.025Z,1.75
2022-10-16T10:15:58.614Z,1.13
2022-10-16T10:19:00.516Z,1.95
2022-10-16T10:21:28.738Z,1.50
2022-10-16T10:23:59.038Z,1.75
2022-10-16T10:26:31.289Z,0.88
2022-10-16T10:29:49.543Z,1.30
2022-10-16T10:32:50.677Z,2.28
2022-10-16T10:35:46.326Z,0.73
2022-10-16T10:38:47.764Z,1.55
2022-10-16T10:41:32.946Z,0.93
2022-10-16T10:44:34.852Z,1.58
2022-10-16T10:47:21.085Z,0.80
2022-10-16T10:50:02.463Z,2.25
2022-10-16T10:52:48.373Z,0.98
2022-10-16T10:55:40.436Z,0.90
2022-10-16T10:58:38.444Z,1.15
2022-10-16T11:01:15.070Z,1.67
2022-10-16T11:04:20.062Z,1.08
2022-10-16T11:07:00.290Z,2.30
2022-10-16T11:09:52.186Z,2.13
2022-10-16T11:12:41.269Z,1.15
2022-10-16T11:15:33.475Z,1.25
2022-10-16T11:18:49.175Z,5.00
2022-10-16T11:21:28.734Z,2.00
2022-10-16T11:24:13.217Z,2.15
2022-10-16T11:26:44.133Z,2.65
2022-10-16T11:29:26.525Z,3.78
2022-10-16T11:32:02.956Z,1.67
2022-10-16T11:34:46.244Z,2.88
2022-10-16T11:37:25.178Z,2.90
2022-10-16T11:39:58.334Z,1.00
2022-10-16T11:42:40.992Z,2.60
2022-10-16T11:45:17.568Z,0.98
2022-10-16T11:47:59.187Z,0.90
2022-10-16T11:50:56.127Z,2.83
2022-10-16T11:53:59.238Z,2.45
2022-10-16T11:56:29.566Z,3.65
2022-10-16T11:59:03.818Z,2.47
2022-10-16T12:02:00.333Z,2.63
2022-10-16T12:04:59.708Z,1.10
2022-10-16T12:07:40.377Z,2.33
2022-10-16T12:10:27.946Z,0.98
2022-10-16T12:12:57.859Z,3.50
2022-10-16T12:15:58.649Z,1.30
2022-10-16T12:18:27.289Z,0.82
2022-10-16T12:21:01.047Z,9.20
2022-10-16T12:23:29.302Z,1.17
2022-10-16T12:26:00.610Z,3.08
2022-10-16T12:31:06.594Z,0.80
2022-10-16T12:33:42.814Z,1.83
2022-10-16T12:36:32.968Z,0.75
2022-10-16T12:39:01.954Z,1.00
2022-10-16T12:41:40.952Z,3.45
2022-10-16T12:44:34.635Z,1.88
2022-10-16T12:47:03.852Z,2.20
2022-10-16T12:49:38.757Z,0.80
2022-10-16T12:52:35.638Z,1.38
2022-10-16T12:55:13.453Z,0.80
2022-10-16T12:58:07.357Z,1.15
2022-10-16T13:01:15.365Z,0.70
2022-10-16T13:03:54.704Z,1.35
2022-10-16T13:06:53.766Z,1.10
2022-10-16T13:09:45.107Z,1.45
2022-10-16T13:12:42.186Z,0.73
2022-10-16T13:15:40.578Z,3.00
2022-10-16T13:18:19.915Z,3.63
2022-10-16T13:21:41.612Z,3.35
2022-10-16T13:24:52.354Z,1.48
2022-10-16T13:27:51.267Z,1.87
2022-10-16T13:30:28.211Z,1.80
2022-10-16T13:33:27.771Z,1.80
2022-10-16T13:35:58.229Z,1.33
2022-10-16T13:38:34.269Z,2.78
2022-10-16T13:41:18.189Z,3.60
2022-10-16T13:43:54.373Z,2.15
2022-10-16T13:46:26.574Z,0.82
2022-10-16T13:49:17.871Z,3.00
2022-10-16T13:52:01.126Z,1.13
2022-10-16T13:54:32.977Z,3.25
2022-10-16T13:57:25.908Z,1.40
2022-10-16T13:59:56.147Z,2.20
2022-10-16T14:02:40.352Z,1.35
2022-10-16T14:05:11.968Z,1.85
2022-10-16T14:07:40.258Z,1.20
2022-10-16T14:10:32.415Z,1.42
2022-10-16T14:13:07.793Z,1.35
2022-10-16T14:15:37.888Z,1.65
2022-10-16T14:18:07.816Z,0.95
2022-10-16T14:20:36.557Z,1.85
2022-10-16T14:23:25.251Z,2.45
2022-10-16T14:25:53.539Z,4.15
2022-10-16T14:28:24.672Z,3.38
2022-10-16T14:31:01.835Z,2.92
2022-10-16T14:33:38.005Z,3.90
2022-10-16T14:36:28.215Z,1.98
2022-10-16T14:39:15.980Z,2.42
2022-10-16T14:41:51.439Z,1.15
2022-10-16T14:44:24.326Z,0.95
2022-10-16T14:46:52.412Z,1.02
2022-10-16T14:49:23.570Z,1.30
2022-10-16T14:51:53.220Z,2.33
2022-10-16T14:54:21.731Z,4.55
2022-10-16T14:56:59.310Z,2.53
2022-10-16T14:59:39.559Z,2.78
2022-10-16T15:02:32.420Z,3.17
2022-10-16T15:05:23.456Z,2.42
2022-10-16T15:07:55.828Z,2.83
2022-10-16T15:10:27.060Z,1.33
2022-10-16T15:12:55.295Z,4.78
2022-10-16T15:15:36.476Z,1.20
2022-10-16T15:18:05.644Z,4.68
2022-10-16T15:20:37.322Z,14.07
2022-10-16T15:23:17.402Z,2.35
2022-10-16T15:25:52.532Z,1.42
2022-10-16T15:28:22.931Z,5.75
2022-10-16T15:30:54.313Z,1.17
2022-10-16T15:35:58.435Z,1.63
2022-10-16T15:38:27.852Z,1.67
2022-10-16T15:40:56.557Z,1.85
2022-10-16T15:43:24.860Z,2.67
2022-10-16T15:46:07.248Z,3.03
2022-10-16T15:48:36.948Z,2.00
2022-10-16T15:51:10.939Z,2.22
2022-10-16T15:53:41.902Z,1.70
2022-10-16T15:56:13.215Z,7.47
2022-10-16T15:58:42.605Z,1.60
2022-10-16T16:01:12.415Z,1.80
2022-10-16T16:03:43.564Z,3.22
2022-10-16T16:06:16.895Z,1.83
2022-10-16T16:08:45.063Z,2.42
2022-10-16T16:11:18.138Z,2.65
2022-10-16T16:13:47.123Z,2.55
2022-10-16T16:16:17.764Z,3.63
2022-10-16T16:18:46.331Z,4.93
2022-10-16T16:21:16.382Z,3.80
2022-10-16T16:26:37.357Z,2.00
2022-10-16T16:29:05.802Z,3.13
2022-10-16T16:31:35.591Z,3.05
2022-10-16T16:34:04.100Z,3.25
2022-10-16T16:36:33.242Z,5.10
2022-10-16T16:39:01.814Z,1.80
2022-10-16T16:41:32.647Z,2.25
2022-10-16T16:44:08.770Z,2.97
2022-10-16T16:46:38.780Z,2.90
2022-10-16T16:49:08.283Z,4.53
2022-10-16T16:51:39.912Z,3.40
2022-10-16T16:54:11.300Z,3.83
2022-10-16T16:56:41.091Z,2.45
2022-10-16T16:59:16.687Z,2.95
2022-10-16T17:01:45.220Z,5.20
2022-10-16T17:04:16.595Z,3.95
2022-10-16T17:06:45.812Z,6.43
2022-10-16T17:09:14.936Z,5.53
2022-10-16T17:11:45.718Z,3.60
2022-10-16T17:14:14.424Z,4.32
2022-10-16T17:16:46.056Z,3.67
2022-10-16T17:21:50.090Z,3.10
2022-10-16T17:24:21.457Z,3.50
2022-10-16T17:29:19.932Z,4.50
2022-10-16T17:31:52.540Z,6.68
2022-10-16T17:34:21.379Z,11.27
2022-10-16T17:36:52.224Z,21.83
2022-10-16T17:39:22.148Z,42.88
2022-10-16T17:41:51.147Z,34.50
2022-10-16T17:44:21.644Z,50.88
2022-10-16T17:46:55.983Z,44.83
2022-10-16T17:51:56.580Z,31.30
2022-10-16T17:54:25.570Z,16.23
2022-10-16T17:56:54.629Z,11.18
2022-10-16T17:59:25.475Z,8.25
2022-10-16T18:01:54.602Z,10.77
2022-10-16T18:04:23.167Z,5.88
2022-10-16T18:06:51.663Z,8.25
2022-10-16T18:09:23.460Z,6.35
2022-10-16T18:12:02.900Z,6.75
2022-10-16T18:17:06.702Z,12.20
2022-10-16T18:22:08.187Z,10.15
2022-10-16T18:24:38.518Z,5.57
2022-10-16T18:27:08.901Z,3.88
2022-10-16T18:29:40.757Z,5.65
2022-10-16T18:32:11.875Z,3.47
2022-10-16T18:34:41.359Z,4.85
2022-10-16T18:37:10.834Z,3.15
2022-10-16T18:39:42.010Z,3.20
2022-10-16T18:44:41.816Z,6.47
2022-10-16T18:47:12.334Z,4.70
2022-10-16T18:49:44.659Z,8.38
2022-10-16T18:52:14.028Z,3.50
2022-10-16T18:54:43.427Z,6.63
2022-10-16T18:57:12.583Z,4.38
2022-10-16T18:59:42.493Z,4.75
2022-10-16T19:02:14.450Z,3.20
2022-10-16T19:04:43.571Z,4.20
2022-10-16T19:07:12.142Z,4.07
2022-10-16T19:09:46.623Z,3.75
2022-10-16T19:12:17.707Z,4.18
2022-10-16T19:14:49.527Z,3.75
2022-10-16T19:19:50.598Z,4.35
2022-10-16T19:22:28.451Z,6.50
2022-10-16T19:24:59.330Z,5.75
2022-10-16T19:27:27.950Z,3.20
2022-10-16T19:29:57.397Z,2.30
2022-10-16T19:32:26.659Z,3.13
2022-10-16T19:34:57.508Z,3.35
2022-10-16T19:37:27.944Z,3.20
2022-10-16T19:39:58.757Z,6.00
2022-10-16T19:42:29.149Z,3.20
2022-10-16T19:44:58.291Z,4.82
2022-10-16T19:47:26.655Z,2.92
2022-10-16T19:49:55.345Z,2.67
2022-10-16T19:52:25.755Z,3.22
2022-10-16T19:54:59.554Z,4.95
2022-10-16T19:57:28.844Z,5.18
2022-10-16T19:59:59.169Z,5.97
2022-10-16T20:02:27.773Z,5.55
2022-10-16T20:04:57.584Z,4.25
2022-10-16T20:07:29.151Z,3.92
2022-10-16T20:09:59.835Z,4.53
2022-10-16T20:12:28.222Z,4.25
2022-10-16T20:14:56.623Z,6.95
2022-10-16T20:17:25.140Z,3.63
2022-10-16T20:19:53.352Z,3.13
2022-10-16T20:22:21.243Z,3.10
2022-10-16T20:24:50.216Z,2.88
2022-10-16T20:27:18.095Z,3.13
2022-10-16T20:29:50.352Z,3.35
2022-10-16T20:32:18.476Z,4.95
2022-10-16T20:34:49.571Z,6.63
2022-10-16T20:37:18.483Z,5.88
2022-10-16T20:39:47.828Z,8.60
2022-10-16T20:42:16.225Z,4.03
2022-10-16T20:44:47.897Z,6.50
2022-10-16T20:47:18.002Z,3.35
2022-10-16T20:49:49.673Z,3.90
2022-10-16T20:52:18.899Z,3.40
2022-10-16T20:54:47.210Z,4.35
2022-10-16T20:57:15.632Z,5.00
2022-10-16T20:59:43.849Z,3.30
2022-10-16T21:02:14.228Z,5.85
2022-10-16T21:04:46.920Z,3.40
2022-10-16T21:07:14.717Z,3.03
2022-10-16T21:09:43.624Z,6.65
2022-10-16T21:12:11.755Z,5.53
2022-10-16T21:14:46.452Z,3.03
2022-10-16T21:17:24.386Z,6.38
2022-10-16T21:19:53.318Z,2.83
2022-10-16T21:22:21.234Z,4.57
2022-10-16T21:24:53.489Z,3.20
2022-10-16T21:27:21.747Z,5.13
2022-10-16T21:29:54.665Z,2.72
2022-10-16T21:32:23.193Z,2.92
2022-10-16T21:34:51.552Z,3.40
2022-10-16T21:37:22.035Z,3.70
2022-10-16T21:39:51.465Z,1.35
2022-10-16T21:42:19.371Z,2.47
2022-10-16T21:44:48.802Z,1.30
2022-10-16T21:47:17.412Z,3.25
2022-10-16T21:49:45.809Z,1.60
2022-10-16T21:52:13.816Z,2.15
2022-10-16T21:54:42.269Z,2.72
2022-10-16T21:57:10.193Z,2.53
2022-10-16T21:59:38.333Z,5.72
2022-10-16T22:02:06.383Z,3.28
2022-10-16T22:04:34.420Z,5.10
2022-10-16T22:07:02.406Z,5.43
2022-10-16T22:09:30.660Z,3.10
2022-10-16T22:11:58.588Z,4.43
2022-10-16T22:14:26.839Z,1.75
2022-10-16T22:16:54.717Z,7.78
2022-10-16T22:19:23.460Z,2.40
2022-10-16T22:21:57.463Z,3.65
2022-10-16T22:24:25.491Z,3.47
2022-10-16T22:26:53.306Z,3.55
2022-10-16T22:29:22.227Z,4.35
2022-10-16T22:31:54.053Z,5.45
2022-10-16T22:34:22.237Z,2.63
2022-10-16T22:36:50.820Z,1.70
2022-10-16T22:39:23.614Z,4.28
2022-10-16T22:41:51.846Z,3.40
2022-10-16T22:44:21.166Z,4.63
2022-10-16T22:46:49.468Z,3.22
2022-10-16T22:49:20.032Z,3.35
2022-10-16T22:51:48.283Z,3.10
2022-10-16T22:54:16.642Z,4.85
2022-10-16T22:56:44.394Z,4.10
2022-10-16T22:59:13.873Z,2.85
2022-10-16T23:01:42.745Z,1.15
2022-10-16T23:04:10.624Z,2.13
2022-10-16T23:06:38.589Z,3.03
2022-10-16T23:09:06.762Z,1.38
2022-10-16T23:11:34.668Z,3.58
2022-10-16T23:14:02.620Z,1.48
2022-10-16T23:16:30.417Z,2.38
2022-10-16T23:18:58.950Z,3.20
2022-10-16T23:21:26.965Z,2.35
2022-10-16T23:23:55.590Z,1.33
2022-10-16T23:26:26.686Z,1.20
2022-10-16T23:28:59.365Z,2.15
2022-10-16T23:31:29.232Z,1.85
2022-10-16T23:33:58.911Z,4.68
2022-10-16T23:36:27.214Z,1.92
2022-10-16T23:38:56.019Z,2.20
2022-10-16T23:41:25.908Z,4.82
2022-10-16T23:43:55.138Z,2.57
2022-10-16T23:46:22.949Z,3.30
2022-10-16T23:48:50.770Z,3.22
2022-10-16T23:51:18.688Z,2.65
2022-10-16T23:53:47.064Z,5.47
2022-10-16T23:56:15.183Z,5.00
2022-10-16T23:58:43.035Z,3.42
